Time;durP1;ratioP1;P1;durP2;ratioP2;P2;SDS_P1;SDS_P2;PMS_P1;PMS_P2;Temp;Humidity;BMP_temperature;BMP_pressure;BME280_temperature;BME280_humidity;BME280_pressure;Samples;Min_cycle;Max_cycle;Signal;HPM_P1;HPM_P2
2021/12/14 00:01:57;;;;;;;18.70;15.25;;;;;;;10.04;100.00;102584.75;5124300;27;20213;-73
2021/12/14 00:04:33;;;;;;;20.75;15.73;;;;;;;10.12;100.00;102584.38;5102343;27;20198;-73
2021/12/14 00:07:02;;;;;;;20.92;16.00;;;;;;;10.18;100.00;102590.81;5110333;27;20027;-74
2021/12/14 00:09:35;;;;;;;19.70;16.27;;;;;;;10.13;100.00;102607.97;5121446;27;20389;-73
2021/12/14 00:17:15;;;;;;;20.25;17.10;;;;;;;9.84;100.00;102590.50;5124110;27;20099;-71
2021/12/14 00:19:41;;;;;;;21.35;17.02;;;;;;;9.76;100.00;102599.91;5117497;27;20339;-72
2021/12/14 00:22:20;;;;;;;19.85;16.85;;;;;;;10.04;100.00;102609.41;5128586;27;20039;-73
2021/12/14 00:24:47;;;;;;;20.60;16.75;;;;;;;9.82;100.00;102601.72;5089871;27;20035;-73
2021/12/14 00:27:14;;;;;;;20.45;16.77;;;;;;;9.80;100.00;102605.75;5127482;27;20049;-72
2021/12/14 00:29:45;;;;;;;20.67;16.70;;;;;;;9.99;100.00;102596.41;5146805;27;20060;-73
2021/12/14 00:32:18;;;;;;;20.90;17.27;;;;;;;9.86;100.00;102596.63;5129769;27;20465;-73
2021/12/14 00:34:44;;;;;;;23.80;17.05;;;;;;;9.74;100.00;102594.66;5120076;27;20026;-72
2021/12/14 00:37:18;;;;;;;20.65;16.40;;;;;;;10.05;100.00;102597.34;5126817;27;20030;-73
2021/12/14 00:39:46;;;;;;;20.75;17.30;;;;;;;10.03;100.00;102589.38;5125193;27;20075;-73
2021/12/14 00:42:13;;;;;;;18.88;16.88;;;;;;;9.83;100.00;102589.69;5127870;27;20023;-73
2021/12/14 00:44:39;;;;;;;21.77;17.10;;;;;;;9.82;100.00;102581.69;5145496;27;20022;-73
2021/12/14 00:47:05;;;;;;;19.63;16.20;;;;;;;10.15;100.00;102583.06;5128411;27;20071;-73
2021/12/14 00:49:32;;;;;;;19.27;16.73;;;;;;;9.98;100.00;102581.03;5116284;27;20482;-72
2021/12/14 00:51:59;;;;;;;18.15;15.70;;;;;;;10.10;100.00;102561.84;5109502;27;20042;-73
2021/12/14 00:54:25;;;;;;;18.58;16.02;;;;;;;10.01;100.00;102576.97;5143198;27;20072;-72
2021/12/14 00:56:51;;;;;;;19.38;15.55;;;;;;;10.01;100.00;102566.84;5122798;27;20027;-73
2021/12/14 00:59:18;;;;;;;20.15;16.95;;;;;;;10.06;100.00;102549.72;5108793;27;20041;-71
2021/12/14 01:02:12;;;;;;;19.33;16.02;;;;;;;9.93;100.00;102562.53;5106666;27;20034;-73
2021/12/14 01:05:00;;;;;;;18.33;16.15;;;;;;;9.87;100.00;102562.66;5117450;27;20039;-73
2021/12/14 01:07:30;;;;;;;21.80;17.60;;;;;;;10.18;100.00;102544.22;5127767;27;20019;-73
2021/12/14 01:09:59;;;;;;;19.35;17.25;;;;;;;10.10;100.00;102542.66;5106106;27;20106;-74
2021/12/14 01:13:06;;;;;;;20.67;16.48;;;;;;;9.96;100.00;102550.28;5118964;27;20022;-71
2021/12/14 01:15:42;;;;;;;21.63;18.15;;;;;;;9.93;100.00;102545.28;5142820;27;20062;-73
2021/12/14 01:18:29;;;;;;;19.67;17.35;;;;;;;9.89;100.00;102539.44;5144969;27;20089;-72
2021/12/14 01:21:08;;;;;;;20.13;17.20;;;;;;;10.11;100.00;102528.72;5143010;27;20015;-72
2021/12/14 01:23:34;;;;;;;21.35;17.17;;;;;;;10.09;100.00;102525.41;5128679;27;20038;-73
2021/12/14 01:26:12;;;;;;;21.83;17.77;;;;;;;10.06;100.00;102530.53;5109058;27;20141;-73
2021/12/14 01:28:39;;;;;;;20.65;17.73;;;;;;;10.17;100.00;102526.97;5146790;27;20074;-72
2021/12/14 01:34:21;;;;;;;23.27;18.40;;;;;;;9.98;100.00;102542.66;5130372;27;20034;-72
2021/12/14 01:36:51;;;;;;;22.85;19.38;;;;;;;10.08;100.00;102544.81;5147118;27;20101;-73
2021/12/14 01:41:53;;;;;;;25.48;19.25;;;;;;;9.76;100.00;102547.88;5144308;27;20384;-72
2021/12/14 01:44:19;;;;;;;22.35;19.05;;;;;;;10.05;100.00;102548.03;5140861;27;20064;-73
2021/12/14 01:46:53;;;;;;;22.83;19.20;;;;;;;9.79;100.00;102552.88;5105100;27;20035;-72
2021/12/14 01:49:19;;;;;;;26.20;20.45;;;;;;;9.79;100.00;102554.78;5134492;27;20023;-73
2021/12/14 01:51:48;;;;;;;26.70;21.73;;;;;;;9.97;100.00;102556.59;5122909;27;20043;-72
2021/12/14 01:54:19;;;;;;;22.88;19.98;;;;;;;9.94;100.00;102561.47;5111086;27;20486;-72
2021/12/14 01:56:45;;;;;;;24.92;20.27;;;;;;;9.89;100.00;102566.00;5101960;28;20035;-72
2021/12/14 01:59:22;;;;;;;25.55;21.15;;;;;;;9.99;100.00;102568.16;5105992;28;20594;-72
2021/12/14 02:02:10;;;;;;;23.40;20.15;;;;;;;10.18;100.00;102550.53;5105795;28;20042;-73
2021/12/14 02:04:46;;;;;;;26.77;20.90;;;;;;;9.92;100.00;102555.41;5102503;27;20133;-73
2021/12/14 02:07:15;;;;;;;24.65;20.23;;;;;;;9.94;100.00;102558.75;5126110;27;20038;-73
2021/12/14 02:09:42;;;;;;;25.70;21.05;;;;;;;9.88;100.00;102551.47;5124284;27;20154;-72
2021/12/14 02:12:17;;;;;;;26.00;21.33;;;;;;;10.04;100.00;102557.34;5104992;27;20050;-73
2021/12/14 02:14:44;;;;;;;27.17;21.60;;;;;;;9.96;100.00;102558.50;5124127;27;20023;-73
2021/12/14 02:17:13;;;;;;;25.13;20.63;;;;;;;9.80;100.00;102554.53;5123525;27;20392;-72
2021/12/14 02:19:41;;;;;;;24.58;20.67;;;;;;;9.79;100.00;102560.25;5115624;27;20118;-73
2021/12/14 02:22:08;;;;;;;26.80;22.42;;;;;;;9.92;100.00;102555.41;5086363;28;20058;-73
2021/12/14 02:24:36;;;;;;;27.55;21.83;;;;;;;9.89;100.00;102550.41;5104369;28;20374;-74
2021/12/14 02:27:02;;;;;;;27.92;22.60;;;;;;;9.78;100.00;102553.94;5098888;28;20114;-74
2021/12/14 02:29:32;;;;;;;25.60;21.27;;;;;;;9.69;100.00;102547.13;5118056;27;20133;-72
2021/12/14 02:32:08;;;;;;;25.48;21.80;;;;;;;9.75;100.00;102547.03;5102557;28;20297;-73
2021/12/14 02:34:50;;;;;;;26.70;21.30;;;;;;;9.63;100.00;102542.59;5095977;28;20024;-73
2021/12/14 02:37:19;;;;;;;27.30;22.02;;;;;;;9.84;100.00;102542.06;5114034;27;20494;-73
2021/12/14 02:40:00;;;;;;;27.27;22.05;;;;;;;9.73;100.00;102540.13;5121271;27;20317;-72
2021/12/14 02:42:26;;;;;;;24.60;21.05;;;;;;;9.72;100.00;102536.56;5121437;27;20115;-73
2021/12/14 02:44:54;;;;;;;26.15;21.88;;;;;;;9.61;100.00;102522.81;5086089;28;20031;-73
2021/12/14 02:47:21;;;;;;;26.88;22.23;;;;;;;9.60;100.00;102521.16;5114720;27;20019;-72
2021/12/14 02:49:51;;;;;;;27.15;22.45;;;;;;;9.67;100.00;102516.41;5118782;27;20030;-71
2021/12/14 02:52:26;;;;;;;28.63;22.58;;;;;;;9.50;100.00;102521.72;5134559;27;20046;-74
2021/12/14 02:54:57;;;;;;;28.67;22.48;;;;;;;9.59;100.00;102514.00;5116967;27;20035;-73
2021/12/14 02:57:28;;;;;;;30.52;22.85;;;;;;;9.36;100.00;102515.59;5141288;27;20118;-73
2021/12/14 02:59:55;;;;;;;26.48;22.17;;;;;;;9.62;100.00;102527.25;5141730;27;20011;-73
2021/12/14 03:02:24;;;;;;;27.80;22.58;;;;;;;9.54;100.00;102523.78;5145088;27;20027;-73
2021/12/14 03:04:54;;;;;;;27.17;22.40;;;;;;;9.61;100.00;102528.28;5120359;27;20018;-74
2021/12/14 03:07:24;;;;;;;26.85;22.20;;;;;;;9.61;100.00;102540.09;5107514;27;20500;-74
2021/12/14 03:10:01;;;;;;;26.65;21.95;;;;;;;9.57;100.00;102544.38;5129377;27;20849;-72
2021/12/14 03:12:33;;;;;;;28.35;22.75;;;;;;;9.69;100.00;102538.91;5125855;27;20504;-74
2021/12/14 03:15:22;;;;;;;28.05;22.30;;;;;;;9.71;100.00;102553.22;5127444;27;20434;-74
2021/12/14 03:17:52;;;;;;;25.58;22.42;;;;;;;9.69;100.00;102547.13;5138597;27;20026;-72
2021/12/14 03:20:21;;;;;;;27.60;22.48;;;;;;;9.76;100.00;102542.41;5123873;27;20026;-73
2021/12/14 03:23:01;;;;;;;24.27;21.17;;;;;;;9.79;100.00;102536.44;5135657;27;20019;-72
2021/12/14 03:25:28;;;;;;;26.60;22.35;;;;;;;9.79;100.00;102530.13;5121405;27;20077;-74
2021/12/14 03:27:55;;;;;;;28.08;22.83;;;;;;;9.63;100.00;102527.00;5134963;27;20045;-73
2021/12/14 03:30:26;;;;;;;30.27;22.50;;;;;;;9.62;100.00;102533.53;5126725;27;20089;-73
2021/12/14 03:32:55;;;;;;;25.50;21.27;;;;;;;9.52;100.00;102541.50;5129990;27;20526;-73
2021/12/14 03:35:33;;;;;;;29.73;23.60;;;;;;;9.49;100.00;102544.69;5121500;27;20055;-73
2021/12/14 03:38:07;;;;;;;28.48;22.88;;;;;;;9.62;100.00;102543.66;5121692;27;20457;-72
2021/12/14 03:40:32;;;;;;;28.40;22.58;;;;;;;9.59;100.00;102544.97;5119383;27;20027;-74
2021/12/14 03:42:58;;;;;;;31.25;22.63;;;;;;;9.36;100.00;102552.03;5123147;27;20590;-73
2021/12/14 03:45:24;;;;;;;28.25;22.63;;;;;;;9.54;100.00;102545.69;5103448;27;20477;-73
2021/12/14 03:47:54;;;;;;;27.85;23.10;;;;;;;9.52;100.00;102550.53;5121604;27;20460;-73
2021/12/14 03:50:24;;;;;;;26.77;21.50;;;;;;;9.66;100.00;102548.44;5120009;27;20027;-73
2021/12/14 03:52:50;;;;;;;27.38;22.35;;;;;;;9.64;100.00;102549.75;5141224;27;20043;-73
2021/12/14 03:55:21;;;;;;;30.17;23.45;;;;;;;9.59;100.00;102541.38;5092600;27;20070;-73
2021/12/14 03:57:47;;;;;;;27.40;21.60;;;;;;;9.69;100.00;102538.91;5146798;27;20143;-73
2021/12/14 04:00:36;;;;;;;29.52;22.50;;;;;;;9.55;100.00;102535.56;5110745;27;20118;-73
2021/12/14 04:03:06;;;;;;;30.08;22.42;;;;;;;9.59;100.00;102538.66;5125453;27;20540;-73
2021/12/14 04:05:35;;;;;;;29.38;22.67;;;;;;;9.53;100.00;102546.75;5132753;27;20381;-74
2021/12/14 04:08:01;;;;;;;26.92;21.70;;;;;;;9.61;100.00;102552.94;5105354;27;20254;-73
2021/12/14 04:10:30;;;;;;;30.20;22.58;;;;;;;9.68;100.00;102550.94;5124417;27;20027;-73
2021/12/14 04:12:57;;;;;;;27.17;21.52;;;;;;;9.45;100.00;102554.47;5125295;27;20027;-72
2021/12/14 04:15:23;;;;;;;27.13;22.45;;;;;;;9.83;100.00;102548.59;5107815;27;20019;-74
2021/12/14 04:17:50;;;;;;;26.40;21.35;;;;;;;9.62;100.00;102554.63;5089297;27;20058;-72
2021/12/14 04:20:24;;;;;;;28.45;21.45;;;;;;;9.61;100.00;102544.72;5088998;27;20088;-74
2021/12/14 04:22:50;;;;;;;26.17;21.08;;;;;;;9.63;100.00;102548.09;5107481;27;20352;-72
2021/12/14 04:25:19;;;;;;;24.80;20.85;;;;;;;9.65;100.00;102546.75;5089486;27;20409;-73
2021/12/14 04:27:44;;;;;;;27.80;20.40;;;;;;;9.87;100.00;102548.94;5125468;27;20062;-74
2021/12/14 04:30:14;;;;;;;26.60;20.38;;;;;;;9.70;100.00;102549.63;5102306;27;20663;-73
2021/12/14 04:32:46;;;;;;;25.63;20.63;;;;;;;9.43;100.00;102549.22;5144640;27;20041;-73
2021/12/14 04:35:12;;;;;;;24.52;19.95;;;;;;;9.70;100.00;102548.81;5103188;27;20477;-73
2021/12/14 04:37:41;;;;;;;23.65;19.95;;;;;;;9.63;100.00;102548.09;5108593;27;20420;-73
2021/12/14 04:40:36;;;;;;;24.85;19.33;;;;;;;9.55;100.00;102533.63;5115534;27;20068;-73
2021/12/14 04:54:20;;;;;;;29.80;21.50;;;;;;;9.57;100.00;102533.41;5143769;27;20376;-73
2021/12/14 04:56:46;;;;;;;25.48;20.13;;;;;;;9.30;100.00;102522.84;5113476;27;20453;-73
2021/12/14 04:59:26;;;;;;;27.73;20.60;;;;;;;9.34;100.00;102525.97;5126285;27;20059;-72
2021/12/14 05:01:58;;;;;;;28.15;20.17;;;;;;;9.42;100.00;102519.34;5134013;27;20037;-72
2021/12/14 05:04:26;;;;;;;28.10;20.35;;;;;;;9.73;100.00;102518.22;5120899;27;20757;-72
2021/12/14 05:07:02;;;;;;;25.52;19.75;;;;;;;9.47;100.00;102523.03;5125161;27;20038;-72
2021/12/14 05:09:32;;;;;;;24.77;19.85;;;;;;;9.36;100.00;102532.03;5108145;27;20031;-72
2021/12/14 05:12:18;;;;;;;28.88;20.80;;;;;;;9.34;100.00;102528.69;5136110;27;20331;-71
2021/12/14 05:14:45;;;;;;;24.15;19.02;;;;;;;9.49;100.00;102518.16;5146664;27;20069;-72
2021/12/14 05:17:16;;;;;;;24.67;20.08;;;;;;;9.61;100.00;102520.06;5109914;27;20652;-73
2021/12/14 05:19:44;;;;;;;28.13;20.23;;;;;;;9.53;100.00;102516.63;5115731;27;20019;-73
2021/12/14 05:22:16;;;;;;;25.60;19.67;;;;;;;9.53;100.00;102516.63;5107526;27;20084;-71
2021/12/14 05:24:48;;;;;;;28.10;20.00;;;;;;;9.49;100.00;102509.09;5106371;27;20027;-73
2021/12/14 05:27:23;;;;;;;27.30;19.08;;;;;;;9.34;100.00;102523.22;5104079;27;20038;-72
2021/12/14 05:29:48;;;;;;;25.33;19.80;;;;;;;9.37;100.00;102512.63;5127726;27;20102;-73
2021/12/14 05:32:17;;;;;;;26.30;19.35;;;;;;;9.45;100.00;102511.47;5125529;27;20200;-72
2021/12/14 05:34:46;;;;;;;24.80;19.83;;;;;;;9.67;100.00;102510.94;5120283;27;20068;-73
2021/12/14 05:37:18;;;;;;;26.63;19.63;;;;;;;9.52;100.00;102519.59;5124174;27;20037;-73
2021/12/14 05:39:56;;;;;;;24.88;20.27;;;;;;;9.46;100.00;102526.00;5130902;27;20222;-72
2021/12/14 05:45:12;;;;;;;27.38;19.58;;;;;;;9.64;100.00;102522.34;5143958;27;20029;-73
2021/12/14 05:47:49;;;;;;;27.30;20.02;;;;;;;9.46;100.00;102526.00;5147778;27;20030;-73
2021/12/14 05:50:28;;;;;;;25.70;20.02;;;;;;;9.69;100.00;102531.56;5123182;27;20027;-73
2021/12/14 05:52:54;;;;;;;25.85;18.70;;;;;;;9.52;100.00;102536.84;5146939;27;20568;-73
2021/12/14 05:55:25;;;;;;;25.40;18.98;;;;;;;9.72;100.00;102541.19;5126596;27;20079;-73
2021/12/14 05:57:54;;;;;;;25.80;19.08;;;;;;;9.57;100.00;102544.38;5146013;27;20097;-73
2021/12/14 06:00:21;;;;;;;25.13;19.83;;;;;;;9.56;100.00;102537.22;5109415;27;20114;-72
2021/12/14 06:02:47;;;;;;;25.65;18.42;;;;;;;9.62;100.00;102541.75;5144220;27;20311;-73
2021/12/14 06:05:17;;;;;;;24.63;17.67;;;;;;;9.80;100.00;102538.09;5104530;27;20030;-73
2021/12/14 06:07:42;;;;;;;27.90;19.60;;;;;;;9.90;100.00;102532.03;5145925;27;20111;-73
2021/12/14 06:10:10;;;;;;;24.08;18.23;;;;;;;9.70;100.00;102535.13;5141673;27;20639;-73
2021/12/14 06:12:38;;;;;;;23.58;18.55;;;;;;;9.94;100.00;102531.34;5145400;27;20446;-72
2021/12/14 06:15:05;;;;;;;22.58;17.27;;;;;;;10.03;100.00;102539.22;5125480;27;20050;-72
2021/12/14 06:17:35;;;;;;;27.10;18.90;;;;;;;10.02;100.00;102543.00;5136792;27;20508;-73
2021/12/14 06:20:06;;;;;;;25.50;17.63;;;;;;;9.70;100.00;102549.63;5134051;27;20019;-72
2021/12/14 06:22:36;;;;;;;27.23;17.40;;;;;;;9.87;100.00;102555.28;5110172;27;20119;-73
2021/12/14 06:25:09;;;;;;;23.58;18.40;;;;;;;9.82;100.00;102557.03;5120418;27;20110;-72
2021/12/14 06:27:35;;;;;;;26.42;17.10;;;;;;;9.81;100.00;102558.97;5106961;27;20056;-72
2021/12/14 06:30:13;;;;;;;28.83;17.65;;;;;;;9.69;100.00;102564.41;5123215;27;20034;-71
2021/12/14 06:32:47;;;;;;;25.08;18.90;;;;;;;9.54;100.00;102564.84;5107209;27;20031;-72
2021/12/14 06:35:20;;;;;;;24.70;18.63;;;;;;;9.62;100.00;102565.56;5119680;27;20035;-73
2021/12/14 06:40:30;;;;;;;23.67;18.13;;;;;;;9.72;100.00;102563.94;5143375;27;20245;-71
2021/12/14 06:43:01;;;;;;;25.98;18.08;;;;;;;9.77;100.00;102560.47;5145022;27;20027;-72
2021/12/14 06:45:56;;;;;;;25.63;17.83;;;;;;;9.78;100.00;102564.91;5143962;27;20034;-73
2021/12/14 06:48:52;;;;;;;28.25;18.40;;;;;;;9.50;100.00;102566.38;5119436;27;20043;-72
2021/12/14 06:51:27;;;;;;;29.80;20.23;;;;;;;9.86;100.00;102570.03;5138868;27;20066;-72
2021/12/14 06:53:57;;;;;;;30.45;20.13;;;;;;;9.76;100.00;102575.28;5144951;27;20118;-72
2021/12/14 06:56:26;;;;;;;29.88;19.90;;;;;;;9.84;100.00;102568.59;5122800;27;20492;-72
2021/12/14 06:59:04;;;;;;;26.77;19.77;;;;;;;9.83;100.00;102575.16;5142638;27;20039;-73
2021/12/14 07:01:46;;;;;;;27.75;18.63;;;;;;;9.89;100.00;102575.06;5124875;27;20034;-73
2021/12/14 07:04:15;;;;;;;31.23;19.90;;;;;;;9.86;100.00;102578.25;5120874;27;20026;-72
2021/12/14 07:06:47;;;;;;;29.85;20.08;;;;;;;9.91;100.00;102583.03;5104763;27;20098;-72
2021/12/14 07:09:38;;;;;;;29.45;20.80;;;;;;;9.95;100.00;102576.00;5131500;27;20023;-73
2021/12/14 07:12:14;;;;;;;25.90;18.17;;;;;;;9.90;100.00;102589.59;5129079;27;20027;-73
2021/12/14 07:14:45;;;;;;;29.02;19.15;;;;;;;9.76;100.00;102588.97;5105404;27;20054;-73
2021/12/14 07:17:18;;;;;;;32.72;19.80;;;;;;;9.77;100.00;102578.84;5121692;27;20322;-72
2021/12/14 07:19:53;;;;;;;30.35;18.98;;;;;;;10.03;100.00;102589.38;5120040;27;20068;-73
2021/12/14 07:22:30;;;;;;;26.02;18.67;;;;;;;9.88;100.00;102578.03;5103519;27;20031;-74
2021/12/14 07:25:20;;;;;;;30.05;19.55;;;;;;;9.92;100.00;102591.03;5119699;27;20149;-73
2021/12/14 07:28:01;;;;;;;30.27;20.35;;;;;;;9.91;100.00;102592.09;5123359;27;20023;-73
2021/12/14 07:30:58;;;;;;;31.23;20.95;;;;;;;9.96;100.00;102604.25;5107071;27;20034;-73
2021/12/14 07:33:31;;;;;;;27.85;20.02;;;;;;;9.81;100.00;102602.78;5119595;27;20065;-74
2021/12/14 07:35:58;;;;;;;30.02;19.90;;;;;;;10.03;100.00;102608.53;5124106;27;20182;-73
2021/12/14 07:38:26;;;;;;;35.60;20.67;;;;;;;9.85;100.00;102605.88;5124580;27;20031;-73
2021/12/14 07:41:18;;;;;;;33.92;19.50;;;;;;;9.91;100.00;102605.78;5124404;27;20067;-72
2021/12/14 07:43:47;;;;;;;28.58;20.52;;;;;;;9.92;100.00;102610.22;5078250;27;20031;-73
2021/12/14 07:46:21;;;;;;;32.17;21.30;;;;;;;10.01;100.00;102604.38;5142598;27;20067;-73
2021/12/14 07:48:55;;;;;;;32.47;20.73;;;;;;;9.75;100.00;102609.19;5147439;27;20033;-73
2021/12/14 07:51:24;;;;;;;31.10;20.90;;;;;;;9.77;100.00;102622.66;5143425;27;20136;-72
2021/12/14 07:53:59;;;;;;;29.25;20.83;;;;;;;9.81;100.00;102621.13;5128497;27;20375;-73
2021/12/14 07:56:29;;;;;;;31.02;20.40;;;;;;;9.86;100.00;102624.84;5143589;27;20118;-73
2021/12/14 07:58:58;;;;;;;32.03;20.80;;;;;;;9.85;100.00;102628.63;5146738;27;20272;-73
2021/12/14 08:01:24;;;;;;;34.60;21.38;;;;;;;9.78;100.00;102632.56;5145851;27;20847;-72
2021/12/14 08:04:19;;;;;;;34.15;22.10;;;;;;;9.82;100.00;102629.13;5146698;27;20424;-72
2021/12/14 08:06:54;;;;;;;34.70;22.27;;;;;;;10.14;100.00;102623.34;5091117;27;20053;-73
2021/12/14 08:09:46;;;;;;;36.88;21.52;;;;;;;10.13;100.00;102624.41;5126729;27;20121;-73
2021/12/14 08:12:25;;;;;;;32.47;21.73;;;;;;;10.26;100.00;102623.38;5144619;27;20079;-72
2021/12/14 08:15:11;;;;;;;38.20;22.67;;;;;;;10.03;100.00;102635.94;5127012;27;20060;-73
2021/12/14 08:17:38;;;;;;;35.78;22.60;;;;;;;9.97;100.00;102641.53;5128559;27;20512;-73
2021/12/14 08:20:21;;;;;;;33.60;20.85;;;;;;;9.96;100.00;102637.13;5105969;27;20353;-73
2021/12/14 08:22:46;;;;;;;37.90;21.25;;;;;;;10.10;100.00;102638.59;5109629;27;20400;-72
2021/12/14 08:25:14;;;;;;;36.30;23.35;;;;;;;9.81;100.00;102635.66;5107513;27;20403;-72
2021/12/14 08:27:42;;;;;;;40.55;23.42;;;;;;;10.04;100.00;102642.28;5110894;27;20121;-72
2021/12/14 08:30:14;;;;;;;40.63;23.63;;;;;;;10.16;100.00;102643.13;5094364;27;20033;-72
2021/12/14 08:32:45;;;;;;;42.63;23.20;;;;;;;10.22;100.00;102642.19;5115869;27;20031;-70
2021/12/14 08:35:14;;;;;;;37.13;23.30;;;;;;;10.19;100.00;102656.38;5107408;27;20038;-72
2021/12/14 08:37:45;;;;;;;39.53;22.65;;;;;;;10.07;100.00;102658.25;5129978;27;20038;-72
2021/12/14 08:40:15;;;;;;;37.22;22.92;;;;;;;10.19;100.00;102656.38;5104333;27;20470;-71
2021/12/14 08:42:53;;;;;;;38.10;21.85;;;;;;;10.23;100.00;102657.59;5125976;27;20562;-72
2021/12/14 08:45:26;;;;;;;33.55;21.90;;;;;;;10.12;100.00;102664.69;5106471;27;20049;-73
2021/12/14 08:48:14;;;;;;;37.42;22.10;;;;;;;10.01;100.00;102670.16;5106230;27;20030;-72
2021/12/14 08:50:47;;;;;;;30.10;21.92;;;;;;;10.03;100.00;102660.59;5108715;27;20453;-73
2021/12/14 08:53:14;;;;;;;32.38;21.40;;;;;;;10.34;100.00;102666.09;5144995;27;20449;-73
2021/12/14 08:55:46;;;;;;;37.22;22.40;;;;;;;10.23;100.00;102668.56;5126260;27;20038;-73
2021/12/14 08:58:12;;;;;;;37.58;22.73;;;;;;;10.10;100.00;102660.50;5146187;27;20072;-72
2021/12/14 09:00:44;;;;;;;35.20;22.48;;;;;;;10.35;100.00;102660.38;5110013;27;20114;-71
2021/12/14 09:03:19;;;;;;;35.40;22.40;;;;;;;10.20;100.00;102649.81;5144609;27;20058;-73
2021/12/14 09:05:48;;;;;;;39.88;22.63;;;;;;;10.07;100.00;102650.03;5125593;27;20118;-74
2021/12/14 09:08:20;;;;;;;36.00;22.75;;;;;;;10.20;100.00;102654.44;5144777;27;20510;-73
2021/12/14 09:10:48;;;;;;;40.40;22.05;;;;;;;10.34;100.00;102647.72;5121492;27;20468;-73
2021/12/14 09:13:15;;;;;;;34.97;21.50;;;;;;;10.41;100.00;102647.59;5144658;27;20027;-75
2021/12/14 09:15:50;;;;;;;32.90;20.70;;;;;;;10.33;100.00;102650.69;5145186;27;20049;-78
2021/12/14 09:18:23;;;;;;;37.15;20.83;;;;;;;10.21;100.00;102645.16;5130179;27;20025;-70
2021/12/14 09:20:58;;;;;;;31.52;20.65;;;;;;;10.15;100.00;102654.31;5132075;27;20099;-71
2021/12/14 09:23:31;;;;;;;32.45;20.35;;;;;;;10.29;100.00;102661.28;5122705;27;20026;-70
2021/12/14 09:25:58;;;;;;;31.65;20.23;;;;;;;9.93;100.00;102665.81;5121266;27;20084;-70
2021/12/14 09:28:24;;;;;;;32.00;20.23;;;;;;;10.31;100.00;102661.88;5105656;27;20113;-70
2021/12/14 09:30:57;;;;;;;28.88;20.58;;;;;;;10.26;100.00;102662.59;5088436;27;20027;-71
2021/12/14 09:33:24;;;;;;;31.85;20.70;;;;;;;10.43;100.00;102661.94;5103639;27;20046;-71
2021/12/14 09:35:50;;;;;;;31.40;20.80;;;;;;;10.49;100.00;102658.22;5088505;27;20031;-70
2021/12/14 09:38:18;;;;;;;34.83;19.50;;;;;;;10.60;100.00;102671.13;5088632;27;20133;-71
2021/12/14 09:40:52;;;;;;;30.50;20.25;;;;;;;10.56;100.00;102666.34;5104975;27;20069;-71
2021/12/14 09:43:19;;;;;;;35.63;20.20;;;;;;;10.48;100.00;102671.13;5106395;27;20022;-71
2021/12/14 09:45:52;;;;;;;30.45;19.55;;;;;;;10.53;100.00;102667.66;5124697;27;20034;-71
2021/12/14 09:48:34;;;;;;;27.48;18.23;;;;;;;10.62;100.00;102670.88;5122018;27;20019;-71
2021/12/14 09:51:10;;;;;;;29.90;19.20;;;;;;;10.74;100.00;102668.13;5123616;27;20119;-72
2021/12/14 09:53:41;;;;;;;33.00;19.17;;;;;;;10.66;100.00;102663.88;5131726;27;20179;-71
2021/12/14 09:56:07;;;;;;;31.50;18.63;;;;;;;10.58;100.00;102673.28;5143712;27;20528;-70
2021/12/14 09:58:42;;;;;;;29.35;19.02;;;;;;;10.57;100.00;102657.88;5127083;27;20625;-70
2021/12/14 10:01:21;;;;;;;30.50;17.08;;;;;;;10.53;100.00;102664.94;5144621;27;20067;-72
2021/12/14 10:03:52;;;;;;;23.52;15.57;;;;;;;10.62;100.00;102665.41;5136694;27;20435;-70
2021/12/14 10:06:24;;;;;;;35.10;18.75;;;;;;;10.77;100.00;102662.19;5121631;27;20068;-70
2021/12/14 10:08:59;;;;;;;27.95;17.35;;;;;;;10.54;100.00;102668.50;5106828;27;20457;-71
2021/12/14 10:11:48;;;;;;;28.10;18.00;;;;;;;10.58;100.00;102665.03;5120809;27;20031;-71
2021/12/14 10:14:34;;;;;;;32.00;17.58;;;;;;;10.30;100.00;102663.78;5057862;28;20154;-71
2021/12/14 10:17:04;;;;;;;27.13;16.63;;;;;;;10.40;100.00;102665.97;5058803;28;20032;-72
2021/12/14 10:19:31;;;;;;;28.83;17.27;;;;;;;10.45;100.00;102665.28;5058743;28;20062;-72
2021/12/14 10:22:06;;;;;;;28.23;16.85;;;;;;;10.38;100.00;102664.53;5060466;28;20040;-72
2021/12/14 10:24:32;;;;;;;30.75;18.33;;;;;;;10.40;100.00;102670.63;5059175;28;20043;-71
2021/12/14 10:27:03;;;;;;;26.25;17.42;;;;;;;10.45;100.00;102668.00;5055988;28;20037;-71
2021/12/14 10:29:29;;;;;;;28.15;15.68;;;;;;;10.29;100.00;102677.72;5059052;28;20030;-72
2021/12/14 10:32:03;;;;;;;26.38;16.85;;;;;;;10.30;100.00;102672.00;5079865;28;20028;-71
2021/12/14 10:34:34;;;;;;;27.58;16.05;;;;;;;10.39;100.00;102666.22;5070975;28;20220;-73
2021/12/14 10:37:11;;;;;;;28.92;16.35;;;;;;;10.33;100.00;102667.16;5079999;28;20043;-72
2021/12/14 10:42:38;;;;;;;27.80;16.77;;;;;;;10.32;100.00;102676.44;5078914;28;20352;-72
2021/12/14 10:45:07;;;;;;;27.08;15.13;;;;;;;10.46;100.00;102666.94;5063782;28;20124;-73
2021/12/14 10:47:34;;;;;;;23.52;14.80;;;;;;;10.11;100.00;102664.94;5057277;28;20499;-71
2021/12/14 10:50:03;;;;;;;24.15;14.30;;;;;;;10.46;100.00;102670.53;5052182;28;20025;-72
2021/12/14 10:52:31;;;;;;;25.50;14.45;;;;;;;10.33;100.00;102667.16;5058865;28;20016;-72
2021/12/14 10:55:06;;;;;;;22.27;13.13;;;;;;;10.34;100.00;102666.09;5056420;28;20025;-73
2021/12/14 10:57:34;;;;;;;22.67;13.70;;;;;;;10.70;100.00;102658.72;5058312;28;20081;-72
2021/12/14 11:00:05;;;;;;;19.17;12.23;;;;;;;10.47;100.00;102663.13;5068238;28;20107;-71
2021/12/14 11:02:39;;;;;;;18.77;12.10;;;;;;;10.58;100.00;102656.00;5076198;28;20031;-73
2021/12/14 11:05:05;;;;;;;18.13;11.52;;;;;;;10.70;100.00;102661.47;5073921;28;20032;-72
2021/12/14 11:07:39;;;;;;;19.00;12.05;;;;;;;10.64;100.00;102655.00;5078769;28;20031;-72
2021/12/14 11:10:14;;;;;;;22.08;11.82;;;;;;;10.50;100.00;102657.16;5075324;28;20475;-71
2021/12/14 11:12:43;;;;;;;22.15;11.90;;;;;;;10.41;100.00;102651.22;5076097;28;20067;-72
2021/12/14 11:15:08;;;;;;;20.58;12.23;;;;;;;10.50;100.00;102657.16;5077116;28;20669;-72
2021/12/14 11:20:32;;;;;;;21.45;10.63;;;;;;;10.38;100.00;102656.31;5066358;28;20119;-71
2021/12/14 11:23:29;;;;;;;14.27;9.70;;;;;;;10.69;100.00;102657.91;5079912;28;20461;-72
2021/12/14 11:26:00;;;;;;;14.38;9.95;;;;;;;10.59;100.00;102652.16;5040816;28;20041;-72
2021/12/14 11:28:35;;;;;;;15.32;10.18;;;;;;;10.61;100.00;102658.25;5040582;28;20037;-72
2021/12/14 11:31:06;;;;;;;17.77;10.88;;;;;;;10.77;100.00;102651.19;5040312;28;20021;-72
2021/12/14 11:33:43;;;;;;;14.25;9.93;;;;;;;10.43;100.00;102653.72;5062305;28;20494;-71
2021/12/14 11:36:14;;;;;;;17.48;10.13;;;;;;;10.76;100.00;102658.59;5063305;28;20028;-71
2021/12/14 11:38:53;;;;;;;20.23;10.70;;;;;;;10.73;100.00;102648.09;5064593;28;20060;-72
2021/12/14 11:41:27;;;;;;;23.25;11.73;;;;;;;10.72;100.00;102646.44;5060352;28;20032;-72
2021/12/14 11:44:01;;;;;;;20.38;11.48;;;;;;;10.79;100.00;102652.66;5065923;28;20047;-71
2021/12/14 11:46:31;;;;;;;25.02;11.05;;;;;;;10.84;100.00;102651.94;5060856;28;20028;-72
2021/12/14 11:49:04;;;;;;;16.15;9.80;;;;;;;10.77;100.00;102656.69;5038738;28;20028;-72
2021/12/14 11:51:31;;;;;;;19.40;10.88;;;;;;;10.90;100.00;102644.63;5052999;28;20518;-71
2021/12/14 11:53:58;;;;;;;15.73;10.60;;;;;;;10.88;100.00;102642.13;5065270;28;20036;-71
2021/12/14 11:56:29;;;;;;;18.38;9.38;;;;;;;10.58;100.00;102654.06;5063336;28;20115;-72
2021/12/14 11:58:58;;;;;;;19.35;10.63;;;;;;;10.67;100.00;102646.31;5066145;28;20118;-73
2021/12/14 12:01:35;;;;;;;18.17;9.60;;;;;;;10.63;100.00;102651.44;5065993;28;20028;-73
2021/12/14 12:04:02;;;;;;;16.33;9.15;;;;;;;10.71;100.00;102650.25;5065220;28;20118;-72